• Join FlightAware (Why Join?)
  • Login
  • US Flag 
12:46PM EDT


 

Airport Tracker/Info


-or-


 

Live Flight TrackerFlight Track Log ✈ AWE3202 ✈ 28-Jun-2013 ✈ KJAX - KDCA

Flight Track Log - Related Links

Times and Time Zones

All times are in EDT time to prevent confusion due to time zone crossing. See the AWE3202 flight status page for this flight to view local times or setup timezone preferences in your user account.

Time Position Orientation Groundspeed Altitude Reporting Facility
EDT Latitude Longitude Course Direction KTS MPH feet Rate Location/Type
10:41PM 30.4758 -81.6803 326° Northwest 150 173 900  Level Jacksonville Center
10:42PM 30.5006 -81.6364 57° Northeast 239 275 2,200 1,800 Climbing Jacksonville Center
10:43PM 30.5547 -81.6453 352° North 257 296 4,000 2,820 Climbing Jacksonville Center
10:44PM 30.8231 -81.9723 323° Northwest  Level FlightAware Approximate
10:44PM 30.6158 -81.6953 325° Northwest 269 310 7,400  Level Jacksonville Center
10:45PM 30.9364 -82.0714 323° Northwest  Level FlightAware Approximate
10:45PM 30.6789 -81.7500 323° Northwest 275 316 10,200  Level Jacksonville Center
10:46PM 31.0552 -82.1552 319° Northwest  Level FlightAware Approximate
10:46PM 30.7525 -81.8144 323° Northwest 291 335 11,600  Level Jacksonville Center
10:47PM 31.1810 -82.2781 326° Northwest  Level FlightAware Approximate
10:47PM 30.8306 -81.8814 324° Northwest 332 382 14,000  Level Jacksonville Center
10:48PM 30.9125 -81.9531 323° Northwest 354 407 16,500 2,220 Climbing Jacksonville Center
10:49PM 30.9944 -82.0275 322° Northwest 365 420 18,500 1,800 Climbing Jacksonville Center
10:50PM 31.0806 -82.1042 323° Northwest 377 434 20,100 1,620 Climbing Jacksonville Center
10:51PM 31.1708 -82.1836 323° Northwest 387 445 21,800 1,500 Climbing Jacksonville Center
10:52PM 31.2631 -82.2656 323° Northwest 405 466 23,200 1,560 Climbing Jacksonville Center
10:53PM 31.3553 -82.3475 323° Northwest 410 472 24,900 1,440 Climbing Jacksonville Center
10:54PM 31.4392 -82.4203 323° Northwest 417 480 26,100 1,260 Climbing Jacksonville Center
10:55PM 31.5353 -82.5075 322° Northwest 422 486 27,500 1,200 Climbing Jacksonville Center
10:56PM 31.6317 -82.5925 323° Northwest 422 486 28,600 1,200 Climbing Jacksonville Center
10:57PM 31.7258 -82.6753 323° Northwest 422 486 30,000 1,320 Climbing Jacksonville Center
10:59PM 31.8931 -82.8281 322° Northwest 445 512 32,200 1,260 Climbing Atlanta Center
11:00PM 31.9878 -82.9125 323° Northwest 440 506 33,500 1,320 Climbing Atlanta Center
11:01PM 32.0783 -82.9947 322° Northwest 428 493 34,900 1,080 Climbing Atlanta Center
11:02PM 32.1686 -83.0769 322° Northwest 417 480 35,700 540 Climbing Atlanta Center
11:03PM 32.2611 -83.1594 323° Northwest 412 474 36,000 120 Climbing Atlanta Center
11:04PM 32.3536 -83.2447 322° Northwest 417 480 36,000  Level Atlanta Center
11:05PM 32.4458 -83.3325 321° Northwest 417 480 36,000  Level Atlanta Center
11:06PM 32.5403 -83.4156 323° Northwest 417 480 36,000  Level Atlanta Center
11:07PM 32.6594 -83.4442 349° North 417 480 36,000  Level Atlanta Center
11:08PM 32.7758 -83.3842 23° Northeast 407 468 36,000  Level Atlanta Center
11:09PM 32.8925 -83.3139 27° Northeast 421 484 36,000  Level Atlanta Center
11:10PM 33.0006 -83.2414 29° Northeast 438 504 36,000  Level Atlanta Center
11:11PM 33.1189 -83.1658 28° Northeast 458 527 36,000 -540 Level Atlanta Center
11:12PM 33.2353 -83.0950 27° Northeast 467 537 35,000 -540 Descending Atlanta Center
11:13PM 33.3392 -83.0292 28° Northeast 473 544 35,000  Level Atlanta Center
11:14PM 33.4658 -82.9481 28° Northeast 480 552 35,000  Level Atlanta Center
11:15PM 33.5819 -82.8744 28° Northeast 480 552 35,000  Level Atlanta Center
11:16PM 33.7044 -82.7978 27° Northeast 480 552 35,000  Level Atlanta Center
11:17PM 33.8228 -82.7211 28° Northeast 480 552 35,000  Level Atlanta Center
11:18PM 33.9428 -82.6442 28° Northeast 480 552 35,000  Level Atlanta Center
11:19PM 34.0631 -82.5669 28° Northeast 480 552 35,000  Level Atlanta Center
11:20PM 34.1933 -82.4817 28° Northeast 475 547 35,000  Level Atlanta Center
11:21PM 34.3114 -82.4042 28° Northeast 475 547 35,000  Level Atlanta Center
11:22PM 34.4314 -82.3236 29° Northeast 470 541 35,000  Level Atlanta Center
11:23PM 34.5556 -82.2481 27° Northeast 475 547 35,000  Level Atlanta Center
11:24PM 34.6733 -82.1672 29° Northeast 475 547 35,000  Level Atlanta Center
11:25PM 34.7931 -82.0861 29° Northeast 475 547 35,000  Level Atlanta Center
11:26PM 34.8881 -82.0231 29° Northeast 475 547 35,000  Level Atlanta Center
11:27PM 35.0200 -81.9336 29° Northeast 481 554 35,000  Level Atlanta Center
11:28PM 35.1053 -81.7944 53° Northeast 486 559 35,000 -60 Level Atlanta Center
11:29PM 35.1839 -81.6475 57° Northeast 509 586 34,900 -1,020 Descending Atlanta Center
11:30PM 35.2581 -81.5028 58° Northeast 509 586 33,000 -960 Descending Atlanta Center
11:31PM 35.3494 -81.3778 48° Northeast 494 568 33,000  Level Atlanta Center
11:32PM 35.4425 -81.2475 49° Northeast 494 568 33,000  Level Atlanta Center
11:33PM 35.5414 -81.1114 48° Northeast 513 590 33,000  Level Atlanta Center
11:34PM 35.6428 -80.9875 45° Northeast 519 597 33,000  Level Atlanta Center
11:35PM 35.7439 -80.8636 45° Northeast 513 590 33,000  Level Atlanta Center
11:36PM 35.8428 -80.7342 47° Northeast 508 585 33,000  Level Atlanta Center
11:37PM 35.9458 -80.6094 44° Northeast 508 585 33,000  Level Atlanta Center
11:38PM 36.1358 -80.3706 45° Northeast 517 595 33,000  Level Washington Center
11:39PM 36.2367 -80.2428 46° Northeast 516 594 33,000  Level Washington Center
11:40PM 36.3397 -80.1122 46° Northeast 516 594 33,000  Level Washington Center
11:41PM 36.4267 -79.9675 53° Northeast 516 594 33,000  Level Washington Center
11:42PM 36.4947 -79.8139 61° Northeast 516 594 33,000  Level Washington Center
11:43PM 36.5608 -79.6544 63° Northeast 504 580 33,000 -60 Level Washington Center
11:44PM 36.6197 -79.5100 63° Northeast 509 586 32,900 -780 Descending Washington Center
11:45PM 36.6875 -79.3503 62° Northeast 515 593 31,500 -1,620 Descending Washington Center
11:46PM 36.7553 -79.1875 63° Northeast 520 598 29,700 -1,320 Descending Washington Center
11:47PM 36.8292 -79.0119 62° Northeast 520 598 29,000 -360 Descending Washington Center
11:48PM 36.8942 -78.8486 64° Northeast 520 598 29,000 -300 Level Washington Center
11:49PM 36.9589 -78.6875 63° Northeast 520 598 28,400 -1,500 Descending Washington Center
11:50PM 37.0189 -78.5417 63° Northeast 520 598 26,000 -1,740 Descending Washington Center
11:51PM 37.0894 -78.3856 60° Northeast 514 592 25,000 -660 Descending Washington Center
11:52PM 37.1922 -78.2694 42° Northeast 496 571 24,700 -1,020 Descending Washington Center
11:53PM 37.3075 -78.1558 38° Northeast 481 554 23,000 -1,380 Descending Washington Center
11:54PM 37.4097 -78.0547 38° Northeast 475 547 22,000 -540 Descending Washington Center
11:55PM 37.5139 -77.9508 38° Northeast 475 547 22,000  Level Washington Center
11:56PM 37.6183 -77.8439 39° Northeast 475 547 22,000  Level Washington Center
11:57PM 37.7222 -77.7394 38° Northeast 475 547 22,000 -960 Level Washington Center
11:58PM 37.8244 -77.6319 40° Northeast 475 547 20,200 -2,100 Descending Washington Center
11:59PM 37.9239 -77.5344 38° Northeast 469 540 17,800 -2,220 Descending Washington Center
12:00AM 38.0236 -77.4317 39° Northeast 461 531 15,800 -2,040 Descending Washington Center
12:01AM 38.1083 -77.3492 37° Northeast 442 509 13,900 -1,980 Descending Washington Center
12:02AM 38.1950 -77.2561 40° Northeast 425 489 11,900 -1,980 Descending Washington Center
12:03AM 38.2922 -77.1578 38° Northeast 406 467 10,000 -960 Descending Washington Center
12:04AM 38.3842 -77.1411 North 371 427 10,000  Level Washington Center
12:05AM 38.4889 -77.1169 10° North 365 420 10,000  Level Washington Center
12:06AM 38.5956 -77.0950 North 376 433 10,000 -420 Level Washington Center
12:07AM 38.6833 -77.0731 11° North 353 406 9,200 -1,620 Descending Washington Center
12:08AM 38.7644 -77.0747 359° North 315 362 6,900 -1,620 Descending Washington Center
12:09AM 38.8333 -77.1333 326° Northwest 282 325 6,000 -1,500 Descending Potomac TRACON
12:10AM 38.9000 -77.1833 330° Northwest 254 292 3,900 -1,620 Descending Potomac TRACON
12:11AM 38.9333 -77.2500 303° West 233 268 3,000 -480 Descending Potomac TRACON
12:12AM 38.9833 -77.2167 27° Northeast 186 214 3,000  Level Potomac TRACON
12:13AM 38.9667 -77.1500 108° East 196 226 3,100 -600 Climbing Potomac TRACON
12:14AM 38.9167 -77.1167 153° Southeast 154 177 1,800 -1,020 Descending Potomac TRACON
12:15AM 38.9000 -77.0667 113° Southeast 143 165 1,100 -780 Descending Potomac TRACON
12:16AM 38.8833 -77.0500 142° Southeast 133 153 500 -780 Descending Potomac TRACON
12:18AM 38.8500 -77.0333 113° Southeast  Level FlightAware Approximate
12:25AM 38.8519 -77.0377 113° Southeast  Level Estimated
12:26AM 38.8500 -77.0333 113° Southeast  Level FlightAware Approximate